sensor_id;sensor_type;location;lat;lon;timestamp;P1;durP1;ratioP1;P2;durP2;ratioP2
25153;SDS011;47555;51.038;6.280;2022-10-16T00:00:33;2.70;;;1.88;;
25153;SDS011;47555;51.038;6.280;2022-10-16T00:03:00;1.55;;;1.33;;
25153;SDS011;47555;51.038;6.280;2022-10-16T00:05:26;2.75;;;1.60;;
25153;SDS011;47555;51.038;6.280;2022-10-16T00:07:52;2.70;;;1.75;;
25153;SDS011;47555;51.038;6.280;2022-10-16T00:10:18;2.10;;;1.33;;
25153;SDS011;47555;51.038;6.280;2022-10-16T00:12:43;2.35;;;1.60;;
25153;SDS011;47555;51.038;6.280;2022-10-16T00:15:09;3.22;;;1.50;;
25153;SDS011;47555;51.038;6.280;2022-10-16T00:17:35;1.65;;;1.55;;
25153;SDS011;47555;51.038;6.280;2022-10-16T00:20:00;1.95;;;1.48;;
25153;SDS011;47555;51.038;6.280;2022-10-16T00:22:26;1.92;;;1.30;;
25153;SDS011;47555;51.038;6.280;2022-10-16T00:24:51;1.70;;;1.38;;
25153;SDS011;47555;51.038;6.280;2022-10-16T00:27:17;3.08;;;1.65;;
25153;SDS011;47555;51.038;6.280;2022-10-16T00:29:42;3.47;;;1.48;;
25153;SDS011;47555;51.038;6.280;2022-10-16T00:32:08;1.45;;;1.35;;
25153;SDS011;47555;51.038;6.280;2022-10-16T00:34:34;2.30;;;1.48;;
25153;SDS011;47555;51.038;6.280;2022-10-16T00:37:00;1.58;;;1.33;;
25153;SDS011;47555;51.038;6.280;2022-10-16T00:39:25;1.65;;;1.52;;
25153;SDS011;47555;51.038;6.280;2022-10-16T00:41:51;2.33;;;1.65;;
25153;SDS011;47555;51.038;6.280;2022-10-16T00:47:18;2.67;;;1.23;;
25153;SDS011;47555;51.038;6.280;2022-10-16T00:49:50;1.55;;;1.40;;
25153;SDS011;47555;51.038;6.280;2022-10-16T00:52:21;1.75;;;1.52;;
25153;SDS011;47555;51.038;6.280;2022-10-16T00:54:47;1.92;;;1.40;;
25153;SDS011;47555;51.038;6.280;2022-10-16T00:57:14;1.50;;;1.40;;
25153;SDS011;47555;51.038;6.280;2022-10-16T00:59:41;1.92;;;1.42;;
25153;SDS011;47555;51.038;6.280;2022-10-16T01:02:08;2.35;;;1.50;;
25153;SDS011;47555;51.038;6.280;2022-10-16T01:04:37;1.70;;;1.40;;
25153;SDS011;47555;51.038;6.280;2022-10-16T01:10:02;1.65;;;1.42;;
25153;SDS011;47555;51.038;6.280;2022-10-16T01:15:41;1.83;;;1.60;;
25153;SDS011;47555;51.038;6.280;2022-10-16T01:18:34;1.58;;;1.48;;
25153;SDS011;47555;51.038;6.280;2022-10-16T01:21:08;1.67;;;1.50;;
25153;SDS011;47555;51.038;6.280;2022-10-16T01:23:45;2.17;;;1.45;;
25153;SDS011;47555;51.038;6.280;2022-10-16T01:32:15;2.63;;;1.63;;
25153;SDS011;47555;51.038;6.280;2022-10-16T01:35:04;1.52;;;1.42;;
25153;SDS011;47555;51.038;6.280;2022-10-16T01:40:05;1.30;;;1.15;;
25153;SDS011;47555;51.038;6.280;2022-10-16T01:42:36;2.83;;;2.17;;
25153;SDS011;47555;51.038;6.280;2022-10-16T01:45:08;1.35;;;1.20;;
25153;SDS011;47555;51.038;6.280;2022-10-16T01:47:38;2.33;;;1.30;;
25153;SDS011;47555;51.038;6.280;2022-10-16T01:50:05;2.42;;;1.20;;
25153;SDS011;47555;51.038;6.280;2022-10-16T01:52:33;1.20;;;1.10;;
25153;SDS011;47555;51.038;6.280;2022-10-16T01:55:02;2.20;;;1.50;;
25153;SDS011;47555;51.038;6.280;2022-10-16T01:57:33;1.63;;;1.17;;
25153;SDS011;47555;51.038;6.280;2022-10-16T02:00:06;1.73;;;1.00;;
25153;SDS011;47555;51.038;6.280;2022-10-16T02:02:35;1.10;;;1.00;;
25153;SDS011;47555;51.038;6.280;2022-10-16T02:05:25;1.20;;;1.10;;
25153;SDS011;47555;51.038;6.280;2022-10-16T02:08:09;1.80;;;1.20;;
25153;SDS011;47555;51.038;6.280;2022-10-16T02:10:35;1.17;;;1.05;;
25153;SDS011;47555;51.038;6.280;2022-10-16T02:13:09;1.20;;;1.10;;
25153;SDS011;47555;51.038;6.280;2022-10-16T02:15:41;1.30;;;0.90;;
25153;SDS011;47555;51.038;6.280;2022-10-16T02:18:06;2.05;;;1.10;;
25153;SDS011;47555;51.038;6.280;2022-10-16T02:20:37;2.28;;;1.00;;
25153;SDS011;47555;51.038;6.280;2022-10-16T02:23:08;1.30;;;1.10;;
25153;SDS011;47555;51.038;6.280;2022-10-16T02:25:41;1.63;;;0.82;;
25153;SDS011;47555;51.038;6.280;2022-10-16T02:28:17;1.02;;;0.90;;
25153;SDS011;47555;51.038;6.280;2022-10-16T02:30:57;1.15;;;0.93;;
25153;SDS011;47555;51.038;6.280;2022-10-16T02:33:26;1.17;;;1.08;;
25153;SDS011;47555;51.038;6.280;2022-10-16T02:35:54;1.10;;;0.93;;
25153;SDS011;47555;51.038;6.280;2022-10-16T02:38:21;1.08;;;1.08;;
25153;SDS011;47555;51.038;6.280;2022-10-16T02:40:48;1.83;;;1.10;;
25153;SDS011;47555;51.038;6.280;2022-10-16T02:43:14;0.90;;;0.90;;
25153;SDS011;47555;51.038;6.280;2022-10-16T02:45:40;1.75;;;1.00;;
25153;SDS011;47555;51.038;6.280;2022-10-16T02:48:05;1.20;;;0.90;;
25153;SDS011;47555;51.038;6.280;2022-10-16T02:50:31;1.70;;;0.98;;
25153;SDS011;47555;51.038;6.280;2022-10-16T02:52:57;2.40;;;1.05;;
25153;SDS011;47555;51.038;6.280;2022-10-16T02:55:22;1.35;;;0.90;;
25153;SDS011;47555;51.038;6.280;2022-10-16T02:57:48;2.67;;;1.20;;
25153;SDS011;47555;51.038;6.280;2022-10-16T03:00:14;1.73;;;0.85;;
25153;SDS011;47555;51.038;6.280;2022-10-16T03:02:41;1.35;;;1.15;;
25153;SDS011;47555;51.038;6.280;2022-10-16T03:05:06;1.77;;;1.10;;
25153;SDS011;47555;51.038;6.280;2022-10-16T03:07:32;2.75;;;1.30;;
25153;SDS011;47555;51.038;6.280;2022-10-16T03:09:58;1.17;;;1.08;;
25153;SDS011;47555;51.038;6.280;2022-10-16T03:12:25;1.00;;;0.80;;
25153;SDS011;47555;51.038;6.280;2022-10-16T03:14:51;0.88;;;0.88;;
25153;SDS011;47555;51.038;6.280;2022-10-16T03:17:17;2.35;;;1.25;;
25153;SDS011;47555;51.038;6.280;2022-10-16T03:19:43;1.95;;;1.02;;
25153;SDS011;47555;51.038;6.280;2022-10-16T03:22:08;1.20;;;1.10;;
25153;SDS011;47555;51.038;6.280;2022-10-16T03:24:34;1.25;;;1.20;;
25153;SDS011;47555;51.038;6.280;2022-10-16T03:26:59;1.10;;;1.00;;
25153;SDS011;47555;51.038;6.280;2022-10-16T03:29:25;1.30;;;1.13;;
25153;SDS011;47555;51.038;6.280;2022-10-16T03:31:51;1.25;;;1.10;;
25153;SDS011;47555;51.038;6.280;2022-10-16T03:34:16;1.10;;;0.90;;
25153;SDS011;47555;51.038;6.280;2022-10-16T03:36:42;1.30;;;1.20;;
25153;SDS011;47555;51.038;6.280;2022-10-16T03:39:07;1.55;;;1.20;;
25153;SDS011;47555;51.038;6.280;2022-10-16T03:41:33;1.23;;;1.13;;
25153;SDS011;47555;51.038;6.280;2022-10-16T03:43:58;1.52;;;1.10;;
25153;SDS011;47555;51.038;6.280;2022-10-16T03:46:24;1.10;;;0.90;;
25153;SDS011;47555;51.038;6.280;2022-10-16T03:48:49;2.45;;;1.10;;
25153;SDS011;47555;51.038;6.280;2022-10-16T03:51:16;2.15;;;1.10;;
25153;SDS011;47555;51.038;6.280;2022-10-16T03:53:41;1.23;;;1.13;;
25153;SDS011;47555;51.038;6.280;2022-10-16T03:56:07;1.55;;;1.35;;
25153;SDS011;47555;51.038;6.280;2022-10-16T03:58:32;1.10;;;1.00;;
25153;SDS011;47555;51.038;6.280;2022-10-16T04:00:58;2.58;;;1.10;;
25153;SDS011;47555;51.038;6.280;2022-10-16T04:03:24;1.10;;;1.10;;
25153;SDS011;47555;51.038;6.280;2022-10-16T04:05:49;1.25;;;1.15;;
25153;SDS011;47555;51.038;6.280;2022-10-16T04:08:15;2.95;;;1.50;;
25153;SDS011;47555;51.038;6.280;2022-10-16T04:10:44;1.63;;;1.20;;
25153;SDS011;47555;51.038;6.280;2022-10-16T04:13:10;1.30;;;1.20;;
25153;SDS011;47555;51.038;6.280;2022-10-16T04:15:36;1.30;;;1.20;;
25153;SDS011;47555;51.038;6.280;2022-10-16T04:18:01;2.58;;;1.50;;
25153;SDS011;47555;51.038;6.280;2022-10-16T04:20:28;1.92;;;1.23;;
25153;SDS011;47555;51.038;6.280;2022-10-16T04:22:54;3.33;;;1.60;;
25153;SDS011;47555;51.038;6.280;2022-10-16T04:25:20;1.63;;;1.10;;
25153;SDS011;47555;51.038;6.280;2022-10-16T04:27:45;2.33;;;1.40;;
25153;SDS011;47555;51.038;6.280;2022-10-16T04:30:11;1.92;;;1.40;;
25153;SDS011;47555;51.038;6.280;2022-10-16T04:32:37;1.35;;;1.25;;
25153;SDS011;47555;51.038;6.280;2022-10-16T04:35:03;1.73;;;1.45;;
25153;SDS011;47555;51.038;6.280;2022-10-16T04:37:28;1.40;;;1.30;;
25153;SDS011;47555;51.038;6.280;2022-10-16T04:39:54;2.25;;;1.35;;
25153;SDS011;47555;51.038;6.280;2022-10-16T04:42:20;1.70;;;1.27;;
25153;SDS011;47555;51.038;6.280;2022-10-16T04:44:46;2.70;;;1.70;;
25153;SDS011;47555;51.038;6.280;2022-10-16T04:47:12;2.13;;;1.50;;
25153;SDS011;47555;51.038;6.280;2022-10-16T04:49:38;1.60;;;1.40;;
25153;SDS011;47555;51.038;6.280;2022-10-16T04:52:03;1.45;;;1.35;;
25153;SDS011;47555;51.038;6.280;2022-10-16T04:54:29;1.40;;;1.27;;
25153;SDS011;47555;51.038;6.280;2022-10-16T04:56:55;1.85;;;1.50;;
25153;SDS011;47555;51.038;6.280;2022-10-16T04:59:20;2.05;;;1.50;;
25153;SDS011;47555;51.038;6.280;2022-10-16T05:01:47;1.88;;;1.77;;
25153;SDS011;47555;51.038;6.280;2022-10-16T05:04:13;1.60;;;1.50;;
25153;SDS011;47555;51.038;6.280;2022-10-16T05:06:39;1.52;;;1.42;;
25153;SDS011;47555;51.038;6.280;2022-10-16T05:09:05;1.60;;;1.50;;
25153;SDS011;47555;51.038;6.280;2022-10-16T05:11:31;1.85;;;1.60;;
25153;SDS011;47555;51.038;6.280;2022-10-16T05:13:56;1.85;;;1.75;;
25153;SDS011;47555;51.038;6.280;2022-10-16T05:16:22;2.55;;;1.60;;
25153;SDS011;47555;51.038;6.280;2022-10-16T05:18:47;2.88;;;1.95;;
25153;SDS011;47555;51.038;6.280;2022-10-16T05:21:13;1.90;;;1.80;;
25153;SDS011;47555;51.038;6.280;2022-10-16T05:23:39;2.00;;;1.80;;
25153;SDS011;47555;51.038;6.280;2022-10-16T05:26:04;1.70;;;1.60;;
25153;SDS011;47555;51.038;6.280;2022-10-16T05:28:30;2.08;;;1.80;;
25153;SDS011;47555;51.038;6.280;2022-10-16T05:30:56;2.10;;;1.90;;
25153;SDS011;47555;51.038;6.280;2022-10-16T05:33:23;1.90;;;1.80;;
25153;SDS011;47555;51.038;6.280;2022-10-16T05:35:50;2.03;;;1.83;;
25153;SDS011;47555;51.038;6.280;2022-10-16T05:38:16;1.60;;;1.50;;
25153;SDS011;47555;51.038;6.280;2022-10-16T05:40:42;1.88;;;1.77;;
25153;SDS011;47555;51.038;6.280;2022-10-16T05:43:08;1.73;;;1.63;;
25153;SDS011;47555;51.038;6.280;2022-10-16T05:45:34;1.98;;;1.70;;
25153;SDS011;47555;51.038;6.280;2022-10-16T05:48:00;2.50;;;2.20;;
25153;SDS011;47555;51.038;6.280;2022-10-16T05:50:28;2.30;;;2.10;;
25153;SDS011;47555;51.038;6.280;2022-10-16T05:52:53;2.15;;;1.92;;
25153;SDS011;47555;51.038;6.280;2022-10-16T05:55:19;2.22;;;2.03;;
25153;SDS011;47555;51.038;6.280;2022-10-16T05:57:44;2.72;;;2.30;;
25153;SDS011;47555;51.038;6.280;2022-10-16T06:00:10;4.00;;;2.20;;
25153;SDS011;47555;51.038;6.280;2022-10-16T06:02:35;2.53;;;2.13;;
25153;SDS011;47555;51.038;6.280;2022-10-16T06:05:01;2.35;;;2.13;;
25153;SDS011;47555;51.038;6.280;2022-10-16T06:07:27;2.50;;;2.30;;
25153;SDS011;47555;51.038;6.280;2022-10-16T06:09:52;2.95;;;2.10;;
25153;SDS011;47555;51.038;6.280;2022-10-16T06:12:18;3.25;;;2.13;;
25153;SDS011;47555;51.038;6.280;2022-10-16T06:14:44;2.58;;;2.30;;
25153;SDS011;47555;51.038;6.280;2022-10-16T06:17:11;2.70;;;2.40;;
25153;SDS011;47555;51.038;6.280;2022-10-16T06:19:38;2.85;;;2.42;;
25153;SDS011;47555;51.038;6.280;2022-10-16T06:22:03;2.35;;;2.05;;
25153;SDS011;47555;51.038;6.280;2022-10-16T06:24:29;2.17;;;1.98;;
25153;SDS011;47555;51.038;6.280;2022-10-16T06:26:54;2.80;;;2.22;;
25153;SDS011;47555;51.038;6.280;2022-10-16T06:29:20;3.00;;;2.40;;
25153;SDS011;47555;51.038;6.280;2022-10-16T06:31:46;3.22;;;2.17;;
25153;SDS011;47555;51.038;6.280;2022-10-16T06:34:11;3.67;;;2.40;;
25153;SDS011;47555;51.038;6.280;2022-10-16T06:36:37;2.90;;;2.60;;
25153;SDS011;47555;51.038;6.280;2022-10-16T06:39:04;3.33;;;2.50;;
25153;SDS011;47555;51.038;6.280;2022-10-16T06:41:31;2.40;;;2.20;;
25153;SDS011;47555;51.038;6.280;2022-10-16T06:43:57;2.72;;;2.47;;
25153;SDS011;47555;51.038;6.280;2022-10-16T06:46:23;4.45;;;2.55;;
25153;SDS011;47555;51.038;6.280;2022-10-16T06:48:50;2.88;;;2.45;;
25153;SDS011;47555;51.038;6.280;2022-10-16T06:51:16;2.30;;;2.10;;
25153;SDS011;47555;51.038;6.280;2022-10-16T06:53:44;4.13;;;2.58;;
25153;SDS011;47555;51.038;6.280;2022-10-16T06:56:13;3.03;;;2.28;;
25153;SDS011;47555;51.038;6.280;2022-10-16T06:58:40;2.70;;;2.50;;
25153;SDS011;47555;51.038;6.280;2022-10-16T07:01:06;3.38;;;2.63;;
25153;SDS011;47555;51.038;6.280;2022-10-16T07:03:33;2.65;;;2.28;;
25153;SDS011;47555;51.038;6.280;2022-10-16T07:06:04;3.22;;;2.83;;
25153;SDS011;47555;51.038;6.280;2022-10-16T07:08:32;4.25;;;2.90;;
25153;SDS011;47555;51.038;6.280;2022-10-16T07:10:59;3.20;;;2.90;;
25153;SDS011;47555;51.038;6.280;2022-10-16T07:13:25;4.13;;;3.40;;
25153;SDS011;47555;51.038;6.280;2022-10-16T07:15:51;3.45;;;2.85;;
25153;SDS011;47555;51.038;6.280;2022-10-16T07:18:16;3.40;;;2.75;;
25153;SDS011;47555;51.038;6.280;2022-10-16T07:20:42;3.95;;;2.65;;
25153;SDS011;47555;51.038;6.280;2022-10-16T07:23:07;4.82;;;2.50;;
25153;SDS011;47555;51.038;6.280;2022-10-16T07:25:33;3.72;;;2.60;;
25153;SDS011;47555;51.038;6.280;2022-10-16T07:27:58;3.28;;;2.70;;
25153;SDS011;47555;51.038;6.280;2022-10-16T07:30:24;4.53;;;2.50;;
25153;SDS011;47555;51.038;6.280;2022-10-16T07:32:49;2.55;;;2.30;;
25153;SDS011;47555;51.038;6.280;2022-10-16T07:35:15;3.20;;;2.70;;
25153;SDS011;47555;51.038;6.280;2022-10-16T07:37:43;2.58;;;2.35;;
25153;SDS011;47555;51.038;6.280;2022-10-16T07:40:13;2.80;;;2.60;;
25153;SDS011;47555;51.038;6.280;2022-10-16T07:42:39;3.85;;;3.22;;
25153;SDS011;47555;51.038;6.280;2022-10-16T07:45:04;3.28;;;2.97;;
25153;SDS011;47555;51.038;6.280;2022-10-16T07:47:30;3.17;;;2.70;;
25153;SDS011;47555;51.038;6.280;2022-10-16T07:49:56;4.15;;;2.33;;
25153;SDS011;47555;51.038;6.280;2022-10-16T07:52:21;2.53;;;1.98;;
25153;SDS011;47555;51.038;6.280;2022-10-16T07:54:47;2.17;;;1.98;;
25153;SDS011;47555;51.038;6.280;2022-10-16T07:57:12;2.33;;;1.98;;
25153;SDS011;47555;51.038;6.280;2022-10-16T07:59:44;2.35;;;1.65;;
25153;SDS011;47555;51.038;6.280;2022-10-16T08:02:10;3.70;;;2.10;;
25153;SDS011;47555;51.038;6.280;2022-10-16T08:04:35;5.38;;;1.80;;
25153;SDS011;47555;51.038;6.280;2022-10-16T08:07:01;4.75;;;1.70;;
25153;SDS011;47555;51.038;6.280;2022-10-16T08:09:26;3.13;;;1.52;;
25153;SDS011;47555;51.038;6.280;2022-10-16T08:11:52;1.80;;;1.42;;
25153;SDS011;47555;51.038;6.280;2022-10-16T08:14:17;2.13;;;1.73;;
25153;SDS011;47555;51.038;6.280;2022-10-16T08:16:43;1.70;;;1.50;;
25153;SDS011;47555;51.038;6.280;2022-10-16T08:19:08;1.85;;;1.38;;
25153;SDS011;47555;51.038;6.280;2022-10-16T08:21:34;2.95;;;1.90;;
25153;SDS011;47555;51.038;6.280;2022-10-16T08:23:59;1.80;;;1.30;;
25153;SDS011;47555;51.038;6.280;2022-10-16T08:26:26;2.08;;;1.30;;
25153;SDS011;47555;51.038;6.280;2022-10-16T08:28:51;2.17;;;1.38;;
25153;SDS011;47555;51.038;6.280;2022-10-16T08:31:17;2.38;;;1.38;;
25153;SDS011;47555;51.038;6.280;2022-10-16T08:33:43;1.60;;;1.33;;
25153;SDS011;47555;51.038;6.280;2022-10-16T08:36:11;1.40;;;1.20;;
25153;SDS011;47555;51.038;6.280;2022-10-16T08:38:37;2.30;;;1.10;;
25153;SDS011;47555;51.038;6.280;2022-10-16T08:43:42;1.65;;;1.27;;
25153;SDS011;47555;51.038;6.280;2022-10-16T08:46:31;1.58;;;1.10;;
25153;SDS011;47555;51.038;6.280;2022-10-16T08:49:05;1.63;;;1.05;;
25153;SDS011;47555;51.038;6.280;2022-10-16T08:51:37;1.70;;;1.00;;
25153;SDS011;47555;51.038;6.280;2022-10-16T08:54:04;1.30;;;1.20;;
25153;SDS011;47555;51.038;6.280;2022-10-16T08:56:34;0.82;;;0.82;;
25153;SDS011;47555;51.038;6.280;2022-10-16T08:58:59;1.42;;;0.82;;
25153;SDS011;47555;51.038;6.280;2022-10-16T09:01:32;2.97;;;1.10;;
25153;SDS011;47555;51.038;6.280;2022-10-16T09:12:44;2.47;;;0.95;;
25153;SDS011;47555;51.038;6.280;2022-10-16T09:18:15;1.70;;;0.80;;
25153;SDS011;47555;51.038;6.280;2022-10-16T09:20:58;0.60;;;0.60;;
25153;SDS011;47555;51.038;6.280;2022-10-16T09:23:34;1.20;;;0.80;;
25153;SDS011;47555;51.038;6.280;2022-10-16T09:26:01;1.75;;;0.85;;
25153;SDS011;47555;51.038;6.280;2022-10-16T09:28:28;3.08;;;0.85;;
25153;SDS011;47555;51.038;6.280;2022-10-16T09:30:54;1.67;;;1.08;;
25153;SDS011;47555;51.038;6.280;2022-10-16T09:33:41;4.22;;;0.90;;
25153;SDS011;47555;51.038;6.280;2022-10-16T09:36:05;1.80;;;0.77;;
25153;SDS011;47555;51.038;6.280;2022-10-16T09:38:32;2.67;;;0.80;;
25153;SDS011;47555;51.038;6.280;2022-10-16T09:41:01;1.65;;;0.77;;
25153;SDS011;47555;51.038;6.280;2022-10-16T09:43:57;3.13;;;0.82;;
25153;SDS011;47555;51.038;6.280;2022-10-16T09:46:31;1.77;;;0.85;;
25153;SDS011;47555;51.038;6.280;2022-10-16T09:49:03;2.22;;;0.88;;
25153;SDS011;47555;51.038;6.280;2022-10-16T09:51:49;6.43;;;1.23;;
25153;SDS011;47555;51.038;6.280;2022-10-16T09:54:16;2.80;;;1.10;;
25153;SDS011;47555;51.038;6.280;2022-10-16T09:56:44;2.13;;;0.90;;
25153;SDS011;47555;51.038;6.280;2022-10-16T09:59:12;2.35;;;0.90;;
25153;SDS011;47555;51.038;6.280;2022-10-16T10:01:49;1.17;;;0.90;;
25153;SDS011;47555;51.038;6.280;2022-10-16T10:04:16;2.30;;;0.95;;
25153;SDS011;47555;51.038;6.280;2022-10-16T10:06:46;3.53;;;0.90;;
25153;SDS011;47555;51.038;6.280;2022-10-16T10:09:21;2.00;;;0.90;;
25153;SDS011;47555;51.038;6.280;2022-10-16T10:12:00;0.90;;;0.60;;
25153;SDS011;47555;51.038;6.280;2022-10-16T10:14:31;1.88;;;0.70;;
25153;SDS011;47555;51.038;6.280;2022-10-16T10:22:44;3.47;;;0.90;;
25153;SDS011;47555;51.038;6.280;2022-10-16T11:20:51;2.65;;;0.82;;
25153;SDS011;47555;51.038;6.280;2022-10-16T11:23:23;2.58;;;1.00;;
25153;SDS011;47555;51.038;6.280;2022-10-16T11:25:50;2.53;;;0.93;;
25153;SDS011;47555;51.038;6.280;2022-10-16T11:28:20;2.35;;;1.10;;
25153;SDS011;47555;51.038;6.280;2022-10-16T11:31:00;2.10;;;0.93;;
25153;SDS011;47555;51.038;6.280;2022-10-16T11:36:22;4.45;;;0.90;;
25153;SDS011;47555;51.038;6.280;2022-10-16T11:47:24;2.65;;;0.90;;
25153;SDS011;47555;51.038;6.280;2022-10-16T11:49:52;2.47;;;0.90;;
25153;SDS011;47555;51.038;6.280;2022-10-16T11:52:30;3.25;;;0.77;;
25153;SDS011;47555;51.038;6.280;2022-10-16T11:55:05;1.65;;;0.77;;
25153;SDS011;47555;51.038;6.280;2022-10-16T11:57:44;3.08;;;1.13;;
25153;SDS011;47555;51.038;6.280;2022-10-16T12:00:19;1.75;;;1.00;;
25153;SDS011;47555;51.038;6.280;2022-10-16T12:02:54;0.80;;;0.70;;
25153;SDS011;47555;51.038;6.280;2022-10-16T12:08:10;5.45;;;1.25;;
25153;SDS011;47555;51.038;6.280;2022-10-16T12:10:38;1.08;;;0.80;;
25153;SDS011;47555;51.038;6.280;2022-10-16T12:18:38;1.40;;;0.70;;
25153;SDS011;47555;51.038;6.280;2022-10-16T12:21:06;2.83;;;0.90;;
25153;SDS011;47555;51.038;6.280;2022-10-16T12:23:46;1.55;;;0.93;;
25153;SDS011;47555;51.038;6.280;2022-10-16T12:28:48;1.40;;;0.75;;
25153;SDS011;47555;51.038;6.280;2022-10-16T12:31:16;1.85;;;0.82;;
25153;SDS011;47555;51.038;6.280;2022-10-16T12:33:53;0.90;;;0.80;;
25153;SDS011;47555;51.038;6.280;2022-10-16T12:36:34;1.15;;;0.75;;
25153;SDS011;47555;51.038;6.280;2022-10-16T12:39:00;1.08;;;0.88;;
25153;SDS011;47555;51.038;6.280;2022-10-16T12:41:30;2.17;;;0.73;;
25153;SDS011;47555;51.038;6.280;2022-10-16T12:44:00;2.28;;;0.77;;
25153;SDS011;47555;51.038;6.280;2022-10-16T12:51:39;1.27;;;0.77;;
25153;SDS011;47555;51.038;6.280;2022-10-16T13:08:39;1.75;;;0.80;;
25153;SDS011;47555;51.038;6.280;2022-10-16T13:11:10;0.52;;;0.52;;
25153;SDS011;47555;51.038;6.280;2022-10-16T13:19:24;1.10;;;0.70;;
25153;SDS011;47555;51.038;6.280;2022-10-16T13:30:21;1.13;;;0.60;;
25153;SDS011;47555;51.038;6.280;2022-10-16T13:32:58;0.60;;;0.60;;
25153;SDS011;47555;51.038;6.280;2022-10-16T13:35:27;1.05;;;0.70;;
25153;SDS011;47555;51.038;6.280;2022-10-16T13:40:53;0.90;;;0.70;;
25153;SDS011;47555;51.038;6.280;2022-10-16T13:43:28;1.45;;;0.70;;
25153;SDS011;47555;51.038;6.280;2022-10-16T13:46:12;0.73;;;0.60;;
25153;SDS011;47555;51.038;6.280;2022-10-16T13:48:42;2.97;;;0.90;;
25153;SDS011;47555;51.038;6.280;2022-10-16T13:51:13;1.45;;;0.63;;
25153;SDS011;47555;51.038;6.280;2022-10-16T13:53:43;0.52;;;0.50;;
25153;SDS011;47555;51.038;6.280;2022-10-16T13:56:11;0.60;;;0.60;;
25153;SDS011;47555;51.038;6.280;2022-10-16T13:58:38;1.05;;;0.60;;
25153;SDS011;47555;51.038;6.280;2022-10-16T14:01:04;1.27;;;0.65;;
25153;SDS011;47555;51.038;6.280;2022-10-16T14:03:39;0.63;;;0.63;;
25153;SDS011;47555;51.038;6.280;2022-10-16T14:19:39;0.70;;;0.60;;
25153;SDS011;47555;51.038;6.280;2022-10-16T14:22:11;0.50;;;0.50;;
25153;SDS011;47555;51.038;6.280;2022-10-16T14:24:49;0.75;;;0.70;;
25153;SDS011;47555;51.038;6.280;2022-10-16T14:30:32;2.97;;;0.80;;
25153;SDS011;47555;51.038;6.280;2022-10-16T14:38:05;1.10;;;0.60;;
25153;SDS011;47555;51.038;6.280;2022-10-16T14:40:33;1.15;;;0.82;;
25153;SDS011;47555;51.038;6.280;2022-10-16T14:43:01;1.60;;;0.82;;
25153;SDS011;47555;51.038;6.280;2022-10-16T14:45:28;1.67;;;0.70;;
25153;SDS011;47555;51.038;6.280;2022-10-16T14:47:58;1.42;;;0.80;;
25153;SDS011;47555;51.038;6.280;2022-10-16T14:50:26;2.28;;;1.20;;
25153;SDS011;47555;51.038;6.280;2022-10-16T14:52:52;2.08;;;1.20;;
25153;SDS011;47555;51.038;6.280;2022-10-16T14:55:18;1.10;;;1.00;;
25153;SDS011;47555;51.038;6.280;2022-10-16T14:57:44;1.35;;;1.20;;
25153;SDS011;47555;51.038;6.280;2022-10-16T15:00:20;1.38;;;0.90;;
25153;SDS011;47555;51.038;6.280;2022-10-16T15:02:48;1.73;;;0.90;;
25153;SDS011;47555;51.038;6.280;2022-10-16T15:05:22;1.90;;;0.95;;
25153;SDS011;47555;51.038;6.280;2022-10-16T15:07:50;2.25;;;1.60;;
25153;SDS011;47555;51.038;6.280;2022-10-16T15:10:16;2.20;;;1.17;;
25153;SDS011;47555;51.038;6.280;2022-10-16T15:12:42;3.03;;;1.20;;
25153;SDS011;47555;51.038;6.280;2022-10-16T15:17:49;1.48;;;0.90;;
25153;SDS011;47555;51.038;6.280;2022-10-16T15:20:18;1.42;;;1.00;;
25153;SDS011;47555;51.038;6.280;2022-10-16T15:22:44;1.25;;;0.90;;
25153;SDS011;47555;51.038;6.280;2022-10-16T15:25:19;2.10;;;0.88;;
25153;SDS011;47555;51.038;6.280;2022-10-16T15:27:54;1.77;;;1.00;;
25153;SDS011;47555;51.038;6.280;2022-10-16T15:30:19;1.33;;;0.80;;
25153;SDS011;47555;51.038;6.280;2022-10-16T15:32:45;1.25;;;0.90;;
25153;SDS011;47555;51.038;6.280;2022-10-16T15:35:10;1.58;;;0.90;;
25153;SDS011;47555;51.038;6.280;2022-10-16T15:37:36;0.80;;;0.80;;
25153;SDS011;47555;51.038;6.280;2022-10-16T15:40:02;1.25;;;1.02;;
25153;SDS011;47555;51.038;6.280;2022-10-16T15:42:28;3.40;;;0.82;;
25153;SDS011;47555;51.038;6.280;2022-10-16T15:44:53;1.88;;;0.88;;
25153;SDS011;47555;51.038;6.280;2022-10-16T15:47:19;1.65;;;0.70;;
25153;SDS011;47555;51.038;6.280;2022-10-16T15:49:44;0.95;;;0.90;;
25153;SDS011;47555;51.038;6.280;2022-10-16T15:52:10;1.40;;;0.80;;
25153;SDS011;47555;51.038;6.280;2022-10-16T15:54:36;1.40;;;0.80;;
25153;SDS011;47555;51.038;6.280;2022-10-16T15:57:02;1.08;;;0.80;;
25153;SDS011;47555;51.038;6.280;2022-10-16T15:59:27;2.58;;;0.90;;
25153;SDS011;47555;51.038;6.280;2022-10-16T16:01:53;1.88;;;0.93;;
25153;SDS011;47555;51.038;6.280;2022-10-16T16:04:18;0.88;;;0.80;;
25153;SDS011;47555;51.038;6.280;2022-10-16T16:06:44;1.00;;;0.85;;
25153;SDS011;47555;51.038;6.280;2022-10-16T16:09:11;0.85;;;0.70;;
25153;SDS011;47555;51.038;6.280;2022-10-16T16:11:38;2.10;;;0.90;;
25153;SDS011;47555;51.038;6.280;2022-10-16T16:14:04;2.15;;;1.05;;
25153;SDS011;47555;51.038;6.280;2022-10-16T16:16:30;4.07;;;1.40;;
25153;SDS011;47555;51.038;6.280;2022-10-16T16:19:01;1.57;;;1.10;;
25153;SDS011;47555;51.038;6.280;2022-10-16T16:21:27;1.23;;;1.13;;
25153;SDS011;47555;51.038;6.280;2022-10-16T16:23:53;2.03;;;1.10;;
25153;SDS011;47555;51.038;6.280;2022-10-16T16:26:26;2.15;;;1.00;;
25153;SDS011;47555;51.038;6.280;2022-10-16T16:28:54;1.63;;;1.05;;
25153;SDS011;47555;51.038;6.280;2022-10-16T16:31:23;2.00;;;1.27;;
25153;SDS011;47555;51.038;6.280;2022-10-16T16:33:50;4.60;;;1.45;;
25153;SDS011;47555;51.038;6.280;2022-10-16T16:36:16;3.28;;;1.48;;
25153;SDS011;47555;51.038;6.280;2022-10-16T16:38:42;3.00;;;1.52;;
25153;SDS011;47555;51.038;6.280;2022-10-16T16:43:42;3.38;;;1.75;;
25153;SDS011;47555;51.038;6.280;2022-10-16T16:46:07;3.35;;;1.35;;
25153;SDS011;47555;51.038;6.280;2022-10-16T16:48:33;2.55;;;1.35;;
25153;SDS011;47555;51.038;6.280;2022-10-16T16:51:06;3.65;;;1.60;;
25153;SDS011;47555;51.038;6.280;2022-10-16T16:53:34;2.38;;;1.60;;
25153;SDS011;47555;51.038;6.280;2022-10-16T16:56:01;3.63;;;1.67;;
25153;SDS011;47555;51.038;6.280;2022-10-16T16:58:27;4.85;;;1.67;;
25153;SDS011;47555;51.038;6.280;2022-10-16T17:00:53;3.20;;;1.70;;
25153;SDS011;47555;51.038;6.280;2022-10-16T17:03:19;3.40;;;1.83;;
25153;SDS011;47555;51.038;6.280;2022-10-16T17:05:54;2.28;;;1.50;;
25153;SDS011;47555;51.038;6.280;2022-10-16T17:08:24;3.03;;;2.67;;
25153;SDS011;47555;51.038;6.280;2022-10-16T17:10:49;4.70;;;1.70;;
25153;SDS011;47555;51.038;6.280;2022-10-16T17:13:18;2.72;;;1.42;;
25153;SDS011;47555;51.038;6.280;2022-10-16T17:15:47;4.57;;;2.70;;
25153;SDS011;47555;51.038;6.280;2022-10-16T17:18:14;2.97;;;1.90;;
25153;SDS011;47555;51.038;6.280;2022-10-16T17:20:40;3.35;;;1.83;;
25153;SDS011;47555;51.038;6.280;2022-10-16T17:23:07;4.30;;;2.00;;
25153;SDS011;47555;51.038;6.280;2022-10-16T17:25:35;3.30;;;1.85;;
25153;SDS011;47555;51.038;6.280;2022-10-16T17:28:02;2.97;;;1.83;;
25153;SDS011;47555;51.038;6.280;2022-10-16T17:30:27;3.63;;;1.80;;
25153;SDS011;47555;51.038;6.280;2022-10-16T17:32:53;2.67;;;1.63;;
25153;SDS011;47555;51.038;6.280;2022-10-16T17:35:18;3.17;;;1.65;;
25153;SDS011;47555;51.038;6.280;2022-10-16T17:37:44;3.58;;;1.70;;
25153;SDS011;47555;51.038;6.280;2022-10-16T17:40:10;2.63;;;1.75;;
25153;SDS011;47555;51.038;6.280;2022-10-16T17:42:35;4.85;;;2.13;;
25153;SDS011;47555;51.038;6.280;2022-10-16T17:45:01;3.47;;;1.70;;
25153;SDS011;47555;51.038;6.280;2022-10-16T17:47:27;3.03;;;1.90;;
25153;SDS011;47555;51.038;6.280;2022-10-16T17:49:53;4.95;;;2.10;;
25153;SDS011;47555;51.038;6.280;2022-10-16T17:52:18;2.83;;;2.15;;